Time;durP1;ratioP1;P1;durP2;ratioP2;P2;SDS_P1;SDS_P2;PMS_P1;PMS_P2;Temp;Humidity;BMP_temperature;BMP_pressure;BME280_temperature;BME280_humidity;BME280_pressure;Samples;Min_cycle;Max_cycle;Signal;HPM_P1;HPM_P2
2022/06/16 00:02:06;;;;;;;4.60;2.63;;;19.20;99.90;;;;;;5035792;28;20215;-78
2022/06/16 00:04:31;;;;;;;5.03;2.70;;;19.20;99.90;;;;;;5042601;28;20195;-78
2022/06/16 00:06:59;;;;;;;3.28;2.20;;;19.10;99.90;;;;;;5053067;28;20164;-76
2022/06/16 00:09:25;;;;;;;4.93;2.88;;;18.90;99.90;;;;;;5052645;28;20207;-77
2022/06/16 00:11:51;;;;;;;4.95;2.60;;;18.70;99.90;;;;;;5039693;28;20306;-77
2022/06/16 00:14:17;;;;;;;4.30;2.85;;;18.70;99.90;;;;;;5048598;28;20231;-77
2022/06/16 00:16:42;;;;;;;6.07;3.00;;;18.60;99.90;;;;;;5044864;28;20210;-78
2022/06/16 00:19:08;;;;;;;6.03;3.30;;;18.70;99.90;;;;;;5035917;28;20233;-78
2022/06/16 00:21:34;;;;;;;6.15;2.85;;;18.70;99.90;;;;;;5033663;28;20231;-78
2022/06/16 00:24:00;;;;;;;4.75;2.88;;;18.60;99.90;;;;;;5057695;28;20218;-77
2022/06/16 00:26:27;;;;;;;4.53;2.95;;;18.70;99.90;;;;;;5046345;28;20568;-77
2022/06/16 00:28:53;;;;;;;4.57;2.80;;;18.60;99.90;;;;;;5062873;28;20287;-77
2022/06/16 00:31:21;;;;;;;3.88;3.30;;;18.40;99.90;;;;;;5036179;28;20223;-78
2022/06/16 00:33:48;;;;;;;6.10;3.47;;;18.30;99.90;;;;;;5037493;28;20174;-77
2022/06/16 00:36:14;;;;;;;4.45;3.30;;;18.40;99.90;;;;;;5037210;28;20227;-79
2022/06/16 00:38:40;;;;;;;5.32;2.80;;;18.30;99.90;;;;;;5054489;28;20572;-77
2022/06/16 00:41:07;;;;;;;4.97;3.03;;;18.40;99.90;;;;;;5036242;28;20211;-77
2022/06/16 00:43:33;;;;;;;6.25;3.08;;;18.20;99.90;;;;;;5054411;28;20176;-78
2022/06/16 00:46:03;;;;;;;4.32;2.85;;;18.30;99.90;;;;;;5037198;28;20203;-77
2022/06/16 00:48:38;;;;;;;3.03;2.47;;;18.30;99.90;;;;;;5038121;28;20219;-78
2022/06/16 00:51:24;;;;;;;4.90;2.30;;;18.30;99.90;;;;;;5035583;28;20207;-77
2022/06/16 00:53:51;;;;;;;6.35;3.38;;;18.20;99.90;;;;;;5028758;28;20215;-77
2022/06/16 00:56:19;;;;;;;5.95;2.83;;;18.20;99.90;;;;;;5054055;28;20234;-76
2022/06/16 00:58:54;;;;;;;4.72;2.97;;;18.10;99.90;;;;;;5043626;28;20222;-77
2022/06/16 01:01:21;;;;;;;6.65;3.00;;;18.10;99.90;;;;;;5063700;28;20178;-77
2022/06/16 01:06:32;;;;;;;3.53;2.45;;;18.10;99.90;;;;;;5065734;28;20245;-77
2022/06/16 01:09:07;;;;;;;5.60;3.45;;;17.90;99.90;;;;;;5044379;28;20215;-76
2022/06/16 01:15:26;;;;;;;4.03;3.05;;;17.80;99.90;;;;;;5047370;28;20221;-77
2022/06/16 01:18:04;;;;;;;7.10;2.78;;;17.80;99.90;;;;;;5046467;28;20199;-78
2022/06/16 01:20:38;;;;;;;4.88;3.10;;;17.70;99.90;;;;;;5063658;28;20281;-77
2022/06/16 01:23:16;;;;;;;4.43;2.30;;;17.60;99.90;;;;;;5045832;28;20211;-78
2022/06/16 01:25:49;;;;;;;5.15;2.70;;;17.70;99.90;;;;;;5036758;28;20246;-78
2022/06/16 01:28:33;;;;;;;5.68;2.70;;;17.70;99.90;;;;;;5037074;28;20613;-77
2022/06/16 01:31:09;;;;;;;4.95;3.17;;;17.80;99.90;;;;;;5041801;28;21063;-78
2022/06/16 01:33:46;;;;;;;3.65;2.72;;;17.60;99.90;;;;;;5043803;28;20257;-78
2022/06/16 01:36:41;;;;;;;6.85;2.67;;;17.50;99.90;;;;;;5036804;28;20310;-77
2022/06/16 01:39:14;;;;;;;7.40;3.40;;;17.60;99.90;;;;;;5051266;28;20263;-77
2022/06/16 01:41:52;;;;;;;5.13;3.17;;;17.60;99.90;;;;;;5045507;28;20292;-77
2022/06/16 01:44:34;;;;;;;7.78;3.53;;;17.60;99.90;;;;;;5054312;28;20680;-77
2022/06/16 01:47:08;;;;;;;6.95;3.10;;;17.60;99.90;;;;;;5053842;28;20199;-77
2022/06/16 01:49:40;;;;;;;4.35;2.90;;;17.50;99.90;;;;;;5046122;28;20219;-77
2022/06/16 01:52:14;;;;;;;3.83;3.15;;;17.40;99.90;;;;;;5036806;28;20202;-77
2022/06/16 01:54:46;;;;;;;5.22;3.45;;;17.30;99.90;;;;;;5065272;28;20542;-77
2022/06/16 01:57:22;;;;;;;4.00;3.35;;;17.30;99.90;;;;;;5066948;28;20207;-77
2022/06/16 01:59:58;;;;;;;8.73;3.75;;;17.40;99.90;;;;;;5044443;28;20230;-77
2022/06/16 02:02:27;;;;;;;4.97;3.47;;;17.40;99.90;;;;;;5054297;28;20596;-79
2022/06/16 02:05:10;;;;;;;11.25;4.00;;;17.20;99.90;;;;;;5036307;28;20703;-78
2022/06/16 02:07:45;;;;;;;4.80;3.65;;;17.10;99.90;;;;;;5036260;28;20212;-77
2022/06/16 02:10:25;;;;;;;8.45;3.55;;;17.10;99.90;;;;;;5054115;28;20536;-78
2022/06/16 02:12:56;;;;;;;9.70;3.55;;;17.00;99.90;;;;;;5028912;28;20289;-79
2022/06/16 02:15:45;;;;;;;4.80;3.85;;;17.20;99.90;;;;;;5035931;28;20200;-78
2022/06/16 02:18:15;;;;;;;6.10;3.28;;;17.20;99.90;;;;;;5036038;28;20226;-78
2022/06/16 02:21:07;;;;;;;7.57;3.33;;;17.20;99.90;;;;;;5038884;28;20218;-78
2022/06/16 02:23:33;;;;;;;6.65;3.95;;;17.30;99.90;;;;;;5063149;28;20687;-78
2022/06/16 02:25:59;;;;;;;5.65;3.88;;;17.20;99.90;;;;;;5035234;28;20242;-76
2022/06/16 02:28:25;;;;;;;4.28;3.50;;;17.20;99.90;;;;;;5061180;28;20183;-76
2022/06/16 02:31:24;;;;;;;5.88;3.35;;;17.20;99.90;;;;;;5054009;28;20645;-78
2022/06/16 02:34:14;;;;;;;9.02;3.35;;;17.30;99.90;;;;;;5028204;28;20281;-76
2022/06/16 02:36:58;;;;;;;4.18;3.45;;;17.30;99.90;;;;;;5035241;28;20231;-79
2022/06/16 02:39:50;;;;;;;3.85;3.08;;;17.10;99.90;;;;;;5052669;28;20294;-77
2022/06/16 02:42:34;;;;;;;5.70;4.20;;;17.10;99.90;;;;;;5041595;28;20215;-77
2022/06/16 02:45:33;;;;;;;6.40;3.78;;;17.20;99.90;;;;;;5045069;28;20218;-80
2022/06/16 02:48:13;;;;;;;4.60;3.40;;;17.30;99.90;;;;;;5034535;28;20207;-77
2022/06/16 02:50:57;;;;;;;4.25;3.50;;;17.10;99.90;;;;;;5034860;28;20207;-76
2022/06/16 02:56:48;;;;;;;7.30;3.70;;;17.20;99.90;;;;;;5048342;28;20573;-76
2022/06/16 02:59:19;;;;;;;6.75;3.67;;;17.10;99.90;;;;;;5052740;28;20200;-76
2022/06/16 03:01:46;;;;;;;6.68;4.00;;;17.10;99.90;;;;;;5053051;28;20211;-76
2022/06/16 03:04:17;;;;;;;5.60;3.90;;;17.10;99.90;;;;;;5035972;28;20195;-77
2022/06/16 03:06:44;;;;;;;4.63;3.58;;;17.20;99.90;;;;;;5053125;28;20632;-77
2022/06/16 03:09:11;;;;;;;5.53;3.72;;;17.10;99.90;;;;;;5052514;28;20203;-77
2022/06/16 03:11:38;;;;;;;6.05;3.92;;;17.10;99.90;;;;;;5034690;28;20210;-77
2022/06/16 03:14:04;;;;;;;5.18;3.70;;;17.20;99.90;;;;;;5035057;28;20199;-77
2022/06/16 03:16:31;;;;;;;5.32;3.63;;;17.20;99.90;;;;;;5034407;28;20247;-76
2022/06/16 03:18:57;;;;;;;7.00;3.58;;;17.00;99.90;;;;;;5034462;28;20228;-77
2022/06/16 03:21:23;;;;;;;5.93;3.83;;;17.10;99.90;;;;;;5033733;28;20219;-78
2022/06/16 03:23:48;;;;;;;5.80;3.72;;;17.20;99.90;;;;;;5052184;28;20210;-77
2022/06/16 03:26:14;;;;;;;10.77;3.88;;;17.30;99.90;;;;;;5052011;28;20212;-77
2022/06/16 03:28:41;;;;;;;8.35;3.70;;;17.30;99.90;;;;;;5034006;28;20309;-78
2022/06/16 03:31:06;;;;;;;5.25;3.53;;;17.30;99.90;;;;;;5034415;28;20609;-77
2022/06/16 03:33:32;;;;;;;5.63;3.60;;;17.40;99.90;;;;;;5051749;28;20207;-77
2022/06/16 03:35:58;;;;;;;4.68;3.67;;;17.40;99.90;;;;;;5051693;28;20218;-78
2022/06/16 03:40:53;;;;;;;8.32;3.80;;;17.30;99.90;;;;;;5051741;28;20250;-78
2022/06/16 03:43:18;;;;;;;4.70;3.35;;;17.30;99.90;;;;;;5034043;28;20183;-78
2022/06/16 03:45:44;;;;;;;8.48;4.50;;;17.50;99.90;;;;;;5034329;28;20195;-78
2022/06/16 03:48:10;;;;;;;5.75;3.47;;;17.90;99.90;;;;;;5033572;28;20207;-78
2022/06/16 03:50:36;;;;;;;4.78;3.30;;;18.70;99.90;;;;;;5033583;28;20225;-79
2022/06/16 03:53:02;;;;;;;6.50;3.58;;;18.60;99.90;;;;;;5051643;28;20563;-78
2022/06/16 03:55:27;;;;;;;3.47;3.17;;;18.50;99.90;;;;;;5033269;28;20213;-78
2022/06/16 03:57:53;;;;;;;6.43;3.90;;;18.60;99.90;;;;;;5034019;28;20641;-79
2022/06/16 04:00:22;;;;;;;8.27;4.00;;;19.50;99.90;;;;;;5051384;28;20203;-77
2022/06/16 04:02:49;;;;;;;4.05;3.05;;;20.60;99.90;;;;;;5030291;28;20212;-79
2022/06/16 04:05:14;;;;;;;5.50;3.55;;;22.50;99.90;;;;;;5029472;28;20215;-78
2022/06/16 04:07:40;;;;;;;4.85;3.28;;;22.40;99.90;;;;;;5033282;28;20729;-78
2022/06/16 04:10:07;;;;;;;5.60;3.63;;;22.80;99.90;;;;;;5033812;28;20217;-80
2022/06/16 04:12:33;;;;;;;6.35;3.50;;;22.10;99.90;;;;;;5050966;28;20212;-77
2022/06/16 04:14:58;;;;;;;5.90;3.60;;;21.70;99.90;;;;;;5033446;28;20207;-77
2022/06/16 04:17:25;;;;;;;6.38;3.75;;;20.70;99.90;;;;;;5033501;28;20215;-78
2022/06/16 04:22:35;;;;;;;5.32;3.38;;;19.50;99.90;;;;;;5052092;28;20357;-77
2022/06/16 04:25:00;;;;;;;6.88;3.85;;;19.60;99.90;;;;;;5051565;28;20715;-76
2022/06/16 04:27:26;;;;;;;6.45;3.55;;;19.40;99.90;;;;;;5033043;28;20200;-77
2022/06/16 04:29:52;;;;;;;5.88;3.75;;;19.20;99.90;;;;;;5050759;28;20583;-77
2022/06/16 04:32:18;;;;;;;4.22;3.22;;;19.20;99.90;;;;;;5025344;28;20209;-78
2022/06/16 04:34:44;;;;;;;8.27;3.80;;;19.50;99.90;;;;;;5057747;28;20213;-77
2022/06/16 04:37:11;;;;;;;6.22;3.75;;;22.40;99.90;;;;;;5048329;28;20261;-78
2022/06/16 04:39:37;;;;;;;10.63;4.15;;;24.50;99.90;;;;;;5033417;28;20286;-77
2022/06/16 04:42:03;;;;;;;5.22;3.40;;;26.10;99.90;;;;;;5032601;28;20755;-78
2022/06/16 04:44:30;;;;;;;4.43;3.38;;;27.60;99.90;;;;;;5050312;28;20215;-78
2022/06/16 04:46:55;;;;;;;5.50;3.30;;;27.00;99.90;;;;;;5032990;28;20221;-78
2022/06/16 04:49:21;;;;;;;6.80;3.65;;;25.40;99.90;;;;;;5049956;28;20695;-77
2022/06/16 04:51:46;;;;;;;3.38;2.90;;;23.60;99.90;;;;;;5033348;28;20198;-76
2022/06/16 04:54:12;;;;;;;7.50;3.47;;;24.70;99.90;;;;;;5051216;28;20215;-76
2022/06/16 04:56:38;;;;;;;9.65;3.97;;;24.60;99.90;;;;;;5032437;28;20203;-78
2022/06/16 04:59:03;;;;;;;9.55;3.88;;;24.50;99.90;;;;;;5050343;28;20253;-79
2022/06/16 05:01:29;;;;;;;7.50;3.75;;;24.90;99.90;;;;;;5033489;28;20200;-79
2022/06/16 05:03:55;;;;;;;8.85;3.75;;;26.20;99.90;;;;;;5039137;28;20192;-79
2022/06/16 05:06:20;;;;;;;5.70;3.30;;;26.80;99.90;;;;;;5050202;28;20215;-78
2022/06/16 05:08:48;;;;;;;5.35;3.88;;;26.90;99.90;;;;;;5032332;28;20214;-77
2022/06/16 05:11:14;;;;;;;4.35;2.85;;;27.10;99.90;;;;;;5058615;28;20207;-78
2022/06/16 05:13:39;;;;;;;5.63;3.35;;;28.20;99.90;;;;;;5032436;28;20560;-78
2022/06/16 05:16:05;;;;;;;4.90;2.97;;;28.90;99.90;;;;;;5051251;28;20186;-76
2022/06/16 05:18:31;;;;;;;4.05;2.88;;;29.10;99.90;;;;;;5032296;28;20207;-76
2022/06/16 05:21:07;;;;;;;6.18;2.83;;;29.30;99.90;;;;;;5050502;28;20245;-75
2022/06/16 05:23:33;;;;;;;6.88;3.10;;;28.60;99.90;;;;;;5050108;28;20207;-77
2022/06/16 05:25:59;;;;;;;4.38;3.20;;;29.30;99.90;;;;;;5050259;28;20215;-76
2022/06/16 05:28:25;;;;;;;4.57;2.95;;;27.60;99.90;;;;;;5058275;28;20188;-76
2022/06/16 05:30:50;;;;;;;6.05;3.03;;;27.00;99.90;;;;;;5032698;28;20175;-77
2022/06/16 05:33:16;;;;;;;3.97;2.65;;;26.10;99.90;;;;;;5049959;28;20541;-77
2022/06/16 05:35:42;;;;;;;5.43;2.97;;;26.10;99.90;;;;;;5058759;28;20218;-77
2022/06/16 05:38:07;;;;;;;2.97;2.55;;;26.10;99.90;;;;;;5032154;28;20218;-77
2022/06/16 05:40:33;;;;;;;6.05;2.53;;;27.80;99.90;;;;;;5051674;28;20215;-76
2022/06/16 05:42:59;;;;;;;5.07;3.17;;;27.90;99.90;;;;;;5054660;22;20277;-74
2022/06/16 05:45:24;;;;;;;5.75;3.17;;;27.60;99.90;;;;;;5033739;28;20353;-74
2022/06/16 05:47:50;;;;;;;4.53;2.70;;;26.90;99.90;;;;;;5035872;28;20574;-75
2022/06/16 05:50:17;;;;;;;5.18;2.97;;;26.50;99.90;;;;;;5036006;28;20239;-75
2022/06/16 05:52:44;;;;;;;6.50;3.10;;;25.80;99.90;;;;;;5045703;28;20762;-74
2022/06/16 05:55:14;;;;;;;4.82;2.63;;;25.10;99.90;;;;;;5054510;28;20264;-74
2022/06/16 05:57:39;;;;;;;5.15;2.88;;;25.10;99.90;;;;;;5035953;28;20249;-74
2022/06/16 06:00:07;;;;;;;5.50;3.00;;;26.10;99.90;;;;;;5068789;28;20304;-75
2022/06/16 06:02:32;;;;;;;4.10;3.08;;;26.40;99.90;;;;;;5053377;28;20242;-74
2022/06/16 06:04:58;;;;;;;4.53;2.58;;;26.70;99.90;;;;;;5055810;28;20255;-75
2022/06/16 06:07:24;;;;;;;5.15;3.00;;;27.10;99.90;;;;;;5032531;28;20175;-74
2022/06/16 06:18:20;;;;;;;4.25;3.05;;;29.70;99.90;;;;;;5053532;28;20215;-75
2022/06/16 06:20:46;;;;;;;4.43;2.72;;;29.70;99.90;;;;;;5035362;28;20200;-75
2022/06/16 06:23:11;;;;;;;6.03;2.45;;;29.50;99.90;;;;;;5037870;28;20620;-75
2022/06/16 06:25:37;;;;;;;7.70;2.80;;;28.80;99.90;;;;;;5051892;28;20615;-75
2022/06/16 06:28:03;;;;;;;3.42;2.55;;;28.40;99.90;;;;;;5068832;28;20233;-74
2022/06/16 06:30:30;;;;;;;4.95;2.45;;;28.20;99.90;;;;;;5034903;28;20216;-75
2022/06/16 06:32:58;;;;;;;4.47;2.20;;;29.00;99.90;;;;;;5034482;28;20211;-75
2022/06/16 06:35:24;;;;;;;3.78;2.63;;;30.10;99.80;;;;;;5052741;28;20690;-74
2022/06/16 06:37:51;;;;;;;5.75;2.83;;;29.50;98.80;;;;;;5037223;28;20691;-75
2022/06/16 06:40:19;;;;;;;4.00;2.65;;;28.20;99.90;;;;;;5054348;28;20184;-75
2022/06/16 06:42:45;;;;;;;4.05;2.25;;;27.30;99.90;;;;;;5053602;28;20290;-76
2022/06/16 06:45:11;;;;;;;5.38;2.53;;;26.30;99.90;;;;;;5052853;28;20666;-76
2022/06/16 06:47:36;;;;;;;5.53;2.47;;;25.90;99.90;;;;;;5044831;28;20204;-76
2022/06/16 06:50:03;;;;;;;7.53;2.60;;;26.10;99.90;;;;;;5068380;28;20227;-76
2022/06/16 06:52:29;;;;;;;9.32;2.90;;;27.10;99.90;;;;;;5034827;28;20210;-72
2022/06/16 06:54:55;;;;;;;6.28;2.28;;;28.20;99.90;;;;;;5068491;28;20175;-73
2022/06/16 06:57:24;;;;;;;5.65;2.53;;;28.60;99.90;;;;;;5052345;28;20234;-73
2022/06/16 06:59:50;;;;;;;5.97;2.50;;;28.90;99.90;;;;;;5027165;28;20218;-74
2022/06/16 07:02:17;;;;;;;4.72;2.53;;;29.80;99.90;;;;;;5052183;28;20212;-74
2022/06/16 07:04:43;;;;;;;6.32;2.53;;;30.30;98.90;;;;;;5033892;28;20211;-73
2022/06/16 07:07:12;;;;;;;5.43;2.30;;;30.60;97.90;;;;;;5068211;28;20297;-74
2022/06/16 07:09:38;;;;;;;3.65;2.35;;;30.50;97.00;;;;;;5051415;28;20199;-73
2022/06/16 07:12:04;;;;;;;5.28;2.20;;;30.30;97.30;;;;;;5052137;28;20261;-74
2022/06/16 07:14:30;;;;;;;6.80;2.58;;;29.80;97.70;;;;;;5051602;28;20280;-73
2022/06/16 07:16:56;;;;;;;3.33;2.20;;;29.90;98.00;;;;;;5067341;28;20218;-73
2022/06/16 07:19:22;;;;;;;2.42;2.20;;;29.80;97.40;;;;;;5051329;28;20243;-73
2022/06/16 07:21:48;;;;;;;4.95;2.22;;;29.90;97.50;;;;;;5052383;28;20253;-74
2022/06/16 07:24:14;;;;;;;4.53;2.20;;;29.40;98.00;;;;;;5067775;28;20259;-73
2022/06/16 07:26:39;;;;;;;7.00;2.20;;;28.20;98.90;;;;;;5067211;28;20245;-73
2022/06/16 07:29:05;;;;;;;4.90;2.50;;;28.30;99.50;;;;;;5066885;28;20204;-74
2022/06/16 07:31:31;;;;;;;4.32;2.15;;;28.50;99.00;;;;;;5066685;28;20652;-73
2022/06/16 07:33:57;;;;;;;3.22;2.10;;;28.90;98.80;;;;;;5062480;28;20272;-73
2022/06/16 07:36:23;;;;;;;3.15;2.20;;;29.50;98.50;;;;;;5022492;28;20695;-73
2022/06/16 07:38:49;;;;;;;5.32;2.25;;;30.30;98.10;;;;;;5051235;28;20238;-74
2022/06/16 07:44:01;;;;;;;7.10;3.30;;;30.40;96.00;;;;;;5051656;28;20222;-74
2022/06/16 07:46:26;;;;;;;5.28;2.70;;;30.10;96.40;;;;;;5032431;28;20204;-74
2022/06/16 07:48:53;;;;;;;6.18;2.22;;;29.20;96.70;;;;;;5050825;28;20175;-79
2022/06/16 07:51:19;;;;;;;4.07;2.17;;;28.30;97.70;;;;;;5029345;28;20211;-73
2022/06/16 07:53:45;;;;;;;4.72;2.47;;;29.00;97.50;;;;;;5051356;28;20229;-76
2022/06/16 07:56:11;;;;;;;6.47;2.50;;;29.80;96.70;;;;;;5051295;28;20575;-76
2022/06/16 07:58:39;;;;;;;3.55;2.00;;;30.50;95.30;;;;;;5050844;28;20216;-72
2022/06/16 08:01:07;;;;;;;3.47;2.33;;;30.40;94.70;;;;;;5051703;28;20160;-72
2022/06/16 08:03:33;;;;;;;4.97;2.00;;;28.80;95.80;;;;;;5032743;28;20207;-72
2022/06/16 08:06:01;;;;;;;6.53;4.95;;;27.10;97.70;;;;;;5033245;28;20391;-73
2022/06/16 08:08:27;;;;;;;8.18;5.07;;;27.80;98.40;;;;;;5032080;28;20203;-72
2022/06/16 08:10:53;;;;;;;4.60;2.97;;;28.20;98.20;;;;;;5066447;28;20204;-72
2022/06/16 08:13:21;;;;;;;5.30;2.65;;;29.50;97.40;;;;;;5032862;28;20191;-73
2022/06/16 08:15:48;;;;;;;5.28;2.63;;;30.50;95.60;;;;;;5033764;28;20184;-74
2022/06/16 08:18:14;;;;;;;5.28;3.58;;;31.20;94.60;;;;;;5033056;28;20203;-73
2022/06/16 08:20:41;;;;;;;5.57;2.22;;;31.90;94.00;;;;;;5066123;28;20215;-74
2022/06/16 08:23:07;;;;;;;4.72;2.40;;;32.50;92.60;;;;;;5033518;28;20241;-74
2022/06/16 08:25:33;;;;;;;5.38;3.50;;;32.70;91.50;;;;;;5032762;28;20219;-72
2022/06/16 08:28:01;;;;;;;6.07;3.25;;;32.50;91.80;;;;;;5051412;28;20265;-71
2022/06/16 08:30:27;;;;;;;5.05;3.42;;;32.90;91.80;;;;;;5032911;28;20207;-73
2022/06/16 08:32:52;;;;;;;6.10;4.10;;;32.50;91.40;;;;;;5050123;28;20282;-72
2022/06/16 08:35:18;;;;;;;5.32;2.60;;;33.50;90.80;;;;;;5050922;28;20218;-71
2022/06/16 08:37:44;;;;;;;5.88;2.95;;;33.50;89.40;;;;;;5050125;28;20207;-72
2022/06/16 08:40:11;;;;;;;6.40;3.00;;;33.80;89.30;;;;;;5066377;28;20185;-72
2022/06/16 08:42:44;;;;;;;6.05;3.53;;;34.20;88.10;;;;;;5032253;28;20218;-72
2022/06/16 08:45:33;;;;;;;9.50;6.00;;;33.60;87.20;;;;;;5032602;28;20206;-72
2022/06/16 08:48:25;;;;;;;9.00;4.30;;;32.80;88.70;;;;;;5032788;28;20238;-72
2022/06/16 08:50:55;;;;;;;5.70;2.72;;;33.40;88.80;;;;;;5032877;28;20203;-72
2022/06/16 08:53:55;;;;;;;4.80;2.30;;;33.60;87.20;;;;;;5050126;28;20210;-71
2022/06/16 08:56:30;;;;;;;4.22;2.03;;;33.70;86.60;;;;;;5050720;28;20198;-72
2022/06/16 08:59:12;;;;;;;5.65;2.83;;;33.20;85.80;;;;;;5032299;28;20202;-72
2022/06/16 09:01:47;;;;;;;6.63;2.90;;;33.50;86.10;;;;;;5033451;28;20206;-71
2022/06/16 09:04:22;;;;;;;6.72;3.60;;;33.90;85.50;;;;;;5032500;28;20179;-73
2022/06/16 09:07:12;;;;;;;5.10;3.15;;;34.00;85.40;;;;;;5050832;28;20658;-73
2022/06/16 09:10:16;;;;;;;5.57;2.83;;;34.20;84.40;;;;;;5034186;28;20249;-72
2022/06/16 09:13:10;;;;;;;4.80;2.13;;;33.20;84.50;;;;;;5046650;28;20266;-72
2022/06/16 09:16:07;;;;;;;5.65;2.67;;;33.10;85.00;;;;;;5047068;28;20222;-73
2022/06/16 09:19:01;;;;;;;9.80;5.43;;;32.90;84.60;;;;;;5049836;28;20212;-71
2022/06/16 09:35:10;;;;;;;5.68;3.10;;;32.20;87.30;;;;;;5050254;28;20218;-71
2022/06/16 09:37:50;;;;;;;4.70;3.42;;;31.00;88.30;;;;;;5067527;28;20207;-72
2022/06/16 09:40:21;;;;;;;6.15;3.53;;;30.90;89.40;;;;;;5035907;28;20233;-72
2022/06/16 09:42:51;;;;;;;13.27;9.90;;;30.90;89.20;;;;;;5045803;28;20695;-73
2022/06/16 09:45:31;;;;;;;7.38;5.95;;;31.50;89.80;;;;;;5035292;28;20207;-72
2022/06/16 09:48:10;;;;;;;3.58;2.97;;;31.70;89.30;;;;;;5035516;28;20563;-72
2022/06/16 09:51:01;;;;;;;8.68;5.82;;;31.70;89.30;;;;;;5053656;28;20680;-72
2022/06/16 09:53:44;;;;;;;5.18;3.20;;;31.90;90.00;;;;;;5035641;28;20780;-72
2022/06/16 09:56:31;;;;;;;8.60;5.68;;;32.30;88.30;;;;;;5035979;28;20725;-72
2022/06/16 09:59:08;;;;;;;5.97;4.68;;;32.20;86.30;;;;;;5035670;28;20207;-72
2022/06/16 10:01:42;;;;;;;8.70;5.38;;;32.00;88.10;;;;;;5053083;28;20691;-72
2022/06/16 10:04:08;;;;;;;6.72;3.35;;;32.30;87.40;;;;;;5053746;28;20175;-71
2022/06/16 10:06:56;;;;;;;7.50;6.47;;;32.00;86.10;;;;;;5052840;28;20235;-71
2022/06/16 10:09:32;;;;;;;9.32;6.68;;;31.90;85.90;;;;;;5034643;28;20238;-72
2022/06/16 10:12:26;;;;;;;5.25;2.90;;;31.50;86.80;;;;;;5052982;28;20207;-72
2022/06/16 10:15:04;;;;;;;3.20;2.60;;;31.20;87.40;;;;;;5045721;28;20699;-71
2022/06/16 10:17:32;;;;;;;5.03;2.70;;;31.20;87.00;;;;;;5034781;28;20290;-71
2022/06/16 10:19:58;;;;;;;9.25;4.70;;;30.00;88.20;;;;;;5034818;28;20219;-72
2022/06/16 10:22:25;;;;;;;5.00;3.00;;;29.50;89.90;;;;;;5067700;28;20234;-71
2022/06/16 10:24:57;;;;;;;4.20;2.15;;;29.40;90.40;;;;;;5035091;28;20203;-71
2022/06/16 10:27:29;;;;;;;6.05;4.78;;;29.30;90.60;;;;;;5033986;28;20206;-71
2022/06/16 10:29:59;;;;;;;7.18;3.30;;;29.60;90.40;;;;;;5052338;28;20365;-72
2022/06/16 10:32:37;;;;;;;6.47;3.97;;;29.80;89.80;;;;;;5051453;28;20724;-72
2022/06/16 10:35:04;;;;;;;4.88;2.80;;;30.10;89.20;;;;;;5034739;28;20214;-72
2022/06/16 10:37:31;;;;;;;6.50;3.92;;;30.80;88.30;;;;;;5052030;28;20581;-71
2022/06/16 10:40:12;;;;;;;14.23;8.73;;;31.20;87.70;;;;;;5052569;28;20187;-72
2022/06/16 10:42:51;;;;;;;6.53;3.70;;;31.10;87.30;;;;;;5034003;28;20219;-71
2022/06/16 10:45:27;;;;;;;4.25;3.22;;;30.30;88.50;;;;;;5034451;28;20257;-72
2022/06/16 10:48:00;;;;;;;4.22;3.10;;;30.00;89.30;;;;;;5052231;28;20702;-71
2022/06/16 10:50:34;;;;;;;11.43;6.40;;;29.70;90.10;;;;;;5052161;28;20199;-71
2022/06/16 10:53:07;;;;;;;6.13;4.05;;;29.70;90.30;;;;;;5034538;28;20210;-71
2022/06/16 10:55:42;;;;;;;6.28;4.45;;;29.40;90.40;;;;;;5052143;28;20179;-71
2022/06/16 10:58:23;;;;;;;10.48;3.95;;;29.20;90.70;;;;;;5034779;28;20262;-71
2022/06/16 11:01:16;;;;;;;6.45;2.85;;;29.20;90.60;;;;;;5044632;28;20257;-72
2022/06/16 11:03:49;;;;;;;6.10;2.50;;;29.40;90.40;;;;;;5034109;28;20216;-72
2022/06/16 11:06:17;;;;;;;5.80;3.35;;;29.30;90.40;;;;;;5034165;28;20212;-72
2022/06/16 11:08:47;;;;;;;6.57;3.78;;;29.20;90.30;;;;;;5051555;28;20612;-72
2022/06/16 11:11:30;;;;;;;4.22;3.13;;;28.90;90.60;;;;;;5051816;28;20257;-72
2022/06/16 11:13:56;;;;;;;5.43;2.20;;;29.00;90.70;;;;;;5045167;28;20269;-72
2022/06/16 11:16:28;;;;;;;4.07;2.00;;;28.80;90.70;;;;;;5051705;28;20163;-71
2022/06/16 11:18:58;;;;;;;9.20;3.50;;;28.60;91.10;;;;;;5034342;28;20172;-71
2022/06/16 11:21:29;;;;;;;4.40;2.33;;;28.60;91.50;;;;;;5051734;28;20289;-71
2022/06/16 11:23:57;;;;;;;6.03;2.42;;;28.70;91.20;;;;;;5051604;28;20673;-71
2022/06/16 11:26:36;;;;;;;3.92;2.60;;;28.90;91.20;;;;;;5033452;28;20227;-71
2022/06/16 11:29:29;;;;;;;3.65;2.15;;;29.40;90.60;;;;;;5051025;28;20299;-72
2022/06/16 11:32:17;;;;;;;5.05;2.42;;;29.10;90.70;;;;;;5020957;28;20212;-72
2022/06/16 11:34:44;;;;;;;6.88;4.80;;;28.80;90.90;;;;;;5051404;28;20218;-71
2022/06/16 11:37:09;;;;;;;5.32;3.05;;;28.90;91.10;;;;;;5031716;28;20211;-72
2022/06/16 11:39:53;;;;;;;6.40;4.15;;;28.80;90.70;;;;;;5051025;28;20253;-71
2022/06/16 11:45:00;;;;;;;7.57;3.42;;;28.70;91.20;;;;;;5070344;23;20289;-77
2022/06/16 11:47:35;;;;;;;4.55;2.22;;;28.40;91.00;;;;;;5034985;28;20214;-76
2022/06/16 11:50:20;;;;;;;6.55;1.90;;;28.30;91.20;;;;;;5034682;28;20294;-76
2022/06/16 11:53:01;;;;;;;3.63;2.20;;;28.10;91.60;;;;;;5034360;28;20204;-77
2022/06/16 11:55:57;;;;;;;6.80;3.90;;;28.10;91.40;;;;;;5051805;28;20667;-77
2022/06/16 11:58:32;;;;;;;2.85;2.28;;;28.10;91.60;;;;;;5040524;28;20624;-76
2022/06/16 12:01:21;;;;;;;6.68;5.00;;;27.50;91.80;;;;;;5031892;28;20175;-76
2022/06/16 12:04:16;;;;;;;7.97;2.90;;;27.50;92.40;;;;;;5048497;28;20223;-76
2022/06/16 12:07:17;;;;;;;6.32;3.95;;;27.80;92.30;;;;;;5032140;28;20219;-76
2022/06/16 12:10:06;;;;;;;5.05;3.25;;;27.80;91.80;;;;;;4946588;28;20203;-76
2022/06/16 12:12:52;;;;;;;3.88;2.47;;;27.90;91.80;;;;;;5028011;28;20208;-75
2022/06/16 12:15:48;;;;;;;3.60;2.45;;;27.70;91.90;;;;;;5042851;28;20287;-76
2022/06/16 12:18:25;;;;;;;3.92;2.17;;;27.50;92.10;;;;;;5037994;28;20212;-76
2022/06/16 12:21:06;;;;;;;4.45;2.10;;;27.30;92.00;;;;;;5048009;28;20204;-76
2022/06/16 12:23:44;;;;;;;6.45;2.53;;;27.00;92.30;;;;;;5032593;28;20269;-76
2022/06/16 12:26:12;;;;;;;2.95;2.10;;;26.80;92.30;;;;;;5037598;28;20226;-76
2022/06/16 12:28:45;;;;;;;2.78;2.20;;;26.50;92.30;;;;;;5040640;28;20207;-75
2022/06/16 12:31:45;;;;;;;2.22;1.88;;;26.50;92.80;;;;;;5039753;28;20179;-76
2022/06/16 12:34:20;;;;;;;4.43;2.42;;;26.30;92.80;;;;;;5031745;28;20227;-76
2022/06/16 12:36:55;;;;;;;9.00;5.85;;;26.40;93.00;;;;;;5046794;28;20200;-75
2022/06/16 12:40:06;;;;;;;8.02;5.63;;;26.40;93.10;;;;;;5029740;28;20331;-74
2022/06/16 12:42:39;;;;;;;4.82;2.95;;;26.30;93.20;;;;;;4987020;28;20682;-76
2022/06/16 12:45:31;;;;;;;4.53;2.75;;;26.30;93.10;;;;;;4960025;28;20221;-76
2022/06/16 12:48:09;;;;;;;9.15;5.78;;;26.40;93.60;;;;;;5029045;28;20204;-76
2022/06/16 12:50:45;;;;;;;9.65;5.88;;;26.40;93.80;;;;;;5038993;28;20199;-76
2022/06/16 12:53:35;;;;;;;5.40;3.47;;;26.50;93.70;;;;;;5030561;28;20262;-76
2022/06/16 12:56:30;;;;;;;4.43;2.22;;;26.70;93.60;;;;;;5047021;28;20207;-76
2022/06/16 12:59:17;;;;;;;3.20;2.53;;;26.40;93.50;;;;;;5039196;28;20203;-76
2022/06/16 13:01:47;;;;;;;7.80;2.63;;;26.50;93.50;;;;;;5034382;28;20192;-76
2022/06/16 13:04:23;;;;;;;3.20;2.85;;;26.70;93.00;;;;;;5051874;28;20200;-76
2022/06/16 13:06:50;;;;;;;2.95;2.10;;;26.70;92.80;;;;;;5040449;28;20186;-76
2022/06/16 13:09:16;;;;;;;3.88;2.25;;;26.60;92.60;;;;;;5057643;28;20207;-76
2022/06/16 13:11:58;;;;;;;8.88;5.50;;;26.60;93.00;;;;;;5046080;28;20208;-75
2022/06/16 13:14:39;;;;;;;16.17;10.63;;;26.60;93.30;;;;;;5042406;28;20258;-76
2022/06/16 13:17:09;;;;;;;6.93;4.47;;;26.70;93.40;;;;;;5035480;28;20207;-76
2022/06/16 13:19:45;;;;;;;14.10;5.20;;;26.50;93.60;;;;;;5033499;28;20235;-76
2022/06/16 13:22:37;;;;;;;11.18;7.85;;;26.70;93.50;;;;;;5045399;28;20244;-76
2022/06/16 13:25:25;;;;;;;6.75;3.85;;;26.80;93.40;;;;;;5042923;28;20295;-76
2022/06/16 13:27:55;;;;;;;9.60;2.90;;;26.70;93.30;;;;;;5017132;28;20204;-77
2022/06/16 13:30:55;;;;;;;3.92;3.53;;;26.80;93.30;;;;;;5033391;28;20580;-76
2022/06/16 13:33:31;;;;;;;8.38;3.03;;;26.90;93.40;;;;;;5043372;28;20216;-75
2022/06/16 13:36:37;;;;;;;4.15;2.50;;;27.40;93.10;;;;;;5048669;28;20223;-77
2022/06/16 13:39:08;;;;;;;3.72;2.10;;;27.40;92.50;;;;;;5047027;28;20207;-77
2022/06/16 13:41:42;;;;;;;3.35;2.42;;;27.50;92.50;;;;;;5037360;28;20219;-76
2022/06/16 13:44:28;;;;;;;6.13;5.32;;;27.30;92.90;;;;;;5036017;28;20247;-78
2022/06/16 13:46:57;;;;;;;7.78;4.90;;;27.50;93.00;;;;;;5047951;28;20203;-77
2022/06/16 13:49:34;;;;;;;5.85;3.17;;;27.70;92.50;;;;;;5047012;28;20172;-77
2022/06/16 13:52:16;;;;;;;3.80;2.50;;;27.50;92.60;;;;;;5050288;28;20182;-78
2022/06/16 13:54:43;;;;;;;4.22;3.15;;;27.10;93.00;;;;;;5048956;28;20718;-78
2022/06/16 13:57:26;;;;;;;5.55;4.18;;;27.10;92.80;;;;;;5047908;28;20208;-78